createdAt,value
2023-07-30T00:00:57.990Z,24.25
2023-07-30T00:02:49.529Z,24.24
2023-07-30T00:04:40.949Z,24.22
2023-07-30T00:06:32.674Z,24.28
2023-07-30T00:08:24.967Z,24.32
2023-07-30T00:10:16.629Z,24.26
2023-07-30T00:12:09.233Z,24.33
2023-07-30T00:14:00.822Z,24.33
2023-07-30T00:15:52.612Z,24.31
2023-07-30T00:17:44.055Z,24.33
2023-07-30T00:19:36.639Z,24.34
2023-07-30T00:21:27.808Z,24.33
2023-07-30T00:23:19.063Z,24.28
2023-07-30T00:25:10.466Z,24.34
2023-07-30T00:27:02.093Z,24.35
2023-07-30T00:28:53.625Z,24.36
2023-07-30T00:30:46.277Z,24.13
2023-07-30T00:32:43.194Z,24.05
2023-07-30T00:34:36.900Z,24.01
2023-07-30T00:36:28.434Z,23.93
2023-07-30T00:38:20.363Z,23.79
2023-07-30T00:40:12.500Z,23.82
2023-07-30T00:42:04.184Z,23.82
2023-07-30T00:43:55.663Z,23.84
2023-07-30T00:45:46.788Z,23.84
2023-07-30T00:47:39.521Z,23.88
2023-07-30T00:49:30.838Z,23.95
2023-07-30T00:51:22.255Z,24.01
2023-07-30T00:53:15.582Z,24.07
2023-07-30T00:55:08.395Z,24.03
2023-07-30T00:56:59.652Z,24.00
2023-07-30T00:58:51.575Z,24.06
2023-07-30T01:00:43.392Z,23.96
2023-07-30T01:02:35.173Z,23.49
2023-07-30T01:04:26.989Z,23.47
2023-07-30T01:06:19.154Z,23.85
2023-07-30T01:08:11.537Z,23.95
2023-07-30T01:10:04.771Z,24.04
2023-07-30T01:11:56.590Z,24.06
2023-07-30T01:13:48.862Z,24.09
2023-07-30T01:15:40.717Z,23.93
2023-07-30T01:17:32.224Z,24.01
2023-07-30T01:19:23.966Z,23.90
2023-07-30T01:21:15.282Z,23.91
2023-07-30T01:23:06.425Z,23.85
2023-07-30T01:24:57.825Z,23.88
2023-07-30T01:27:08.443Z,23.97
2023-07-30T01:29:02.705Z,23.85
2023-07-30T01:30:55.956Z,23.91
2023-07-30T01:32:50.504Z,23.98
2023-07-30T01:34:42.673Z,23.91
2023-07-30T01:36:34.532Z,23.80
2023-07-30T01:38:27.407Z,23.76
2023-07-30T01:40:19.004Z,23.66
2023-07-30T01:42:13.176Z,23.85
2023-07-30T01:44:04.628Z,23.71
2023-07-30T01:45:56.318Z,23.83
2023-07-30T01:47:48.049Z,23.84
2023-07-30T01:49:39.699Z,23.79
2023-07-30T01:51:31.477Z,23.77
2023-07-30T01:53:23.271Z,23.78
2023-07-30T01:55:14.724Z,23.70
2023-07-30T01:57:05.802Z,23.73
2023-07-30T01:58:57.576Z,23.89
2023-07-30T02:00:49.281Z,23.93
2023-07-30T02:02:41.005Z,23.89
2023-07-30T02:04:32.613Z,23.94
2023-07-30T02:06:23.855Z,23.89
2023-07-30T02:08:17.192Z,23.77
2023-07-30T02:10:08.728Z,23.72
2023-07-30T02:12:00.241Z,23.74
2023-07-30T02:13:52.035Z,23.68
2023-07-30T02:15:43.975Z,23.67
2023-07-30T02:17:36.000Z,23.73
2023-07-30T02:19:27.552Z,23.76
2023-07-30T02:21:18.685Z,23.77
2023-07-30T02:23:10.107Z,23.86
2023-07-30T02:25:01.714Z,23.84
2023-07-30T02:26:53.451Z,23.85
2023-07-30T02:28:45.141Z,23.78
2023-07-30T02:30:36.863Z,23.68
2023-07-30T02:32:28.122Z,23.58
2023-07-30T02:34:20.236Z,23.63
2023-07-30T02:36:11.499Z,23.68
2023-07-30T02:38:02.886Z,23.69
2023-07-30T02:39:54.599Z,23.65
2023-07-30T02:41:46.230Z,23.62
2023-07-30T02:43:37.641Z,23.61
2023-07-30T02:45:28.761Z,23.59
2023-07-30T02:47:20.182Z,23.61
2023-07-30T02:49:11.926Z,23.62
2023-07-30T02:51:03.656Z,23.62
2023-07-30T02:52:55.171Z,23.66
2023-07-30T02:54:46.549Z,23.67
2023-07-30T02:56:38.253Z,23.73
2023-07-30T02:58:29.771Z,23.62
2023-07-30T03:00:20.900Z,23.59
2023-07-30T03:02:12.502Z,23.54
2023-07-30T03:04:05.761Z,23.41
2023-07-30T03:05:57.284Z,23.43
2023-07-30T03:07:48.427Z,23.40
2023-07-30T03:09:40.065Z,23.36
2023-07-30T03:11:31.166Z,23.50
2023-07-30T03:13:22.908Z,23.52
2023-07-30T03:15:14.355Z,23.54
2023-07-30T03:17:06.233Z,23.63
2023-07-30T03:18:57.866Z,23.65
2023-07-30T03:20:49.335Z,23.61
2023-07-30T03:22:40.487Z,23.60
2023-07-30T03:24:32.072Z,23.64
2023-07-30T03:26:23.775Z,23.62
2023-07-30T03:28:15.060Z,23.66
2023-07-30T03:30:07.153Z,23.63
2023-07-30T03:31:58.737Z,23.71
2023-07-30T03:33:49.960Z,23.73
2023-07-30T03:35:41.677Z,23.85
2023-07-30T03:37:33.175Z,23.78
2023-07-30T03:39:24.396Z,23.88
2023-07-30T03:41:15.650Z,23.82
2023-07-30T03:43:07.343Z,23.76
2023-07-30T03:44:59.084Z,23.76
2023-07-30T03:46:50.820Z,23.78
2023-07-30T03:48:42.451Z,23.84
2023-07-30T03:50:33.735Z,23.79
2023-07-30T03:52:25.420Z,23.85
2023-07-30T03:54:16.999Z,23.95
2023-07-30T03:56:08.361Z,23.94
2023-07-30T03:57:59.736Z,23.91
2023-07-30T03:59:51.456Z,23.93
2023-07-30T04:01:42.649Z,24.03
2023-07-30T04:03:34.303Z,24.15
2023-07-30T04:05:25.819Z,24.18
2023-07-30T04:07:17.396Z,24.18
2023-07-30T04:09:09.313Z,24.12
2023-07-30T04:11:00.447Z,24.08
2023-07-30T04:12:52.169Z,24.19
2023-07-30T04:14:43.319Z,24.19
2023-07-30T04:16:35.209Z,24.28
2023-07-30T04:18:26.679Z,24.29
2023-07-30T04:20:19.169Z,24.28
2023-07-30T04:22:10.657Z,24.27
2023-07-30T04:24:02.312Z,24.36
2023-07-30T04:25:53.832Z,24.42
2023-07-30T04:27:45.293Z,24.58
2023-07-30T04:29:36.663Z,24.67
2023-07-30T04:31:28.053Z,24.74
2023-07-30T04:33:19.663Z,24.85
2023-07-30T04:35:10.843Z,25.02
2023-07-30T04:37:03.804Z,24.97
2023-07-30T04:38:55.558Z,25.01
2023-07-30T04:40:47.098Z,24.89
2023-07-30T04:42:38.635Z,24.84
2023-07-30T04:44:30.218Z,25.00
2023-07-30T04:46:21.366Z,25.18
2023-07-30T04:48:13.082Z,25.23
2023-07-30T04:50:05.134Z,25.25
2023-07-30T04:51:56.702Z,25.40
2023-07-30T04:53:48.285Z,25.51
2023-07-30T04:55:39.970Z,25.59
2023-07-30T04:57:31.581Z,25.79
2023-07-30T04:59:22.882Z,26.05
2023-07-30T05:01:14.614Z,26.06
2023-07-30T05:03:06.446Z,26.24
2023-07-30T05:04:58.064Z,26.41
2023-07-30T05:06:49.940Z,26.56
2023-07-30T05:08:41.695Z,26.68
2023-07-30T05:10:33.401Z,26.63
2023-07-30T05:12:24.933Z,26.71
2023-07-30T05:14:16.396Z,26.76
2023-07-30T05:16:08.173Z,26.81
2023-07-30T05:17:59.845Z,26.87
2023-07-30T05:19:51.521Z,26.93
2023-07-30T05:21:42.893Z,27.00
2023-07-30T05:23:34.457Z,27.03
2023-07-30T05:25:25.595Z,27.07
2023-07-30T05:27:16.677Z,27.11
2023-07-30T05:29:08.399Z,27.34
2023-07-30T05:30:59.968Z,27.49
2023-07-30T05:32:51.567Z,27.42
2023-07-30T05:34:43.476Z,27.30
2023-07-30T05:36:34.697Z,27.42
2023-07-30T05:38:26.162Z,27.82
2023-07-30T05:40:17.819Z,27.91
2023-07-30T05:42:09.219Z,27.86
2023-07-30T05:44:00.505Z,27.87
2023-07-30T05:45:52.184Z,27.85
2023-07-30T05:47:44.032Z,28.14
2023-07-30T05:49:35.701Z,28.32
2023-07-30T05:51:27.021Z,28.36
2023-07-30T05:53:18.489Z,28.62
2023-07-30T05:55:10.250Z,28.40
2023-07-30T05:57:01.427Z,28.53
2023-07-30T05:58:52.587Z,28.80
2023-07-30T06:00:44.318Z,28.98
2023-07-30T06:02:35.709Z,29.20
2023-07-30T06:04:26.817Z,29.38
2023-07-30T06:06:18.142Z,29.51
2023-07-30T06:08:10.244Z,29.47
2023-07-30T06:10:01.987Z,29.65
2023-07-30T06:11:53.290Z,29.87
2023-07-30T06:13:44.644Z,29.88
2023-07-30T06:15:36.498Z,30.06
2023-07-30T06:17:28.328Z,30.25
2023-07-30T06:19:19.738Z,30.11
2023-07-30T06:21:11.326Z,30.35
2023-07-30T06:23:02.975Z,30.31
2023-07-30T06:24:55.049Z,30.37
2023-07-30T06:26:46.550Z,30.14
2023-07-30T06:28:37.898Z,30.29
2023-07-30T06:30:29.304Z,30.15
2023-07-30T06:32:20.586Z,30.27
2023-07-30T06:34:11.661Z,30.62
2023-07-30T06:36:03.065Z,30.79
2023-07-30T06:37:54.156Z,31.04
2023-07-30T06:39:45.323Z,31.08
2023-07-30T06:41:37.054Z,31.42
2023-07-30T06:43:28.631Z,31.66
2023-07-30T06:45:20.070Z,31.71
2023-07-30T06:47:11.184Z,31.68
2023-07-30T06:49:02.514Z,31.65
2023-07-30T06:50:53.906Z,31.74
2023-07-30T06:52:45.572Z,31.82
2023-07-30T06:54:39.687Z,32.09
2023-07-30T06:56:31.330Z,32.07
2023-07-30T06:58:22.859Z,32.07
2023-07-30T07:00:19.963Z,32.43
2023-07-30T07:02:11.471Z,32.84
2023-07-30T07:04:03.315Z,33.16
2023-07-30T07:05:57.272Z,33.20
2023-07-30T07:07:49.709Z,33.30
2023-07-30T07:09:41.317Z,33.43
2023-07-30T07:11:32.648Z,33.43
2023-07-30T07:13:24.273Z,33.36
2023-07-30T07:15:15.430Z,33.50
2023-07-30T07:17:07.030Z,33.62
2023-07-30T07:18:58.718Z,33.65
2023-07-30T07:20:50.443Z,33.35
2023-07-30T07:22:41.808Z,33.68
2023-07-30T07:24:33.678Z,33.99
2023-07-30T07:26:25.790Z,34.06
2023-07-30T07:28:17.711Z,34.01
2023-07-30T07:30:09.979Z,34.42
2023-07-30T07:32:01.234Z,34.17
2023-07-30T07:33:52.944Z,34.18
2023-07-30T07:35:44.552Z,34.44
2023-07-30T07:37:35.963Z,34.59
2023-07-30T07:39:27.524Z,34.91
2023-07-30T07:41:19.353Z,34.92
2023-07-30T07:43:10.850Z,35.17
2023-07-30T07:45:02.540Z,35.43
2023-07-30T07:46:54.166Z,35.34
2023-07-30T07:48:46.070Z,35.03
2023-07-30T07:50:37.449Z,35.18
2023-07-30T07:52:28.937Z,35.08
2023-07-30T07:54:20.530Z,35.31
2023-07-30T07:56:11.721Z,35.19
2023-07-30T07:58:03.216Z,35.00
2023-07-30T07:59:55.032Z,35.14
2023-07-30T08:01:46.662Z,35.21
2023-07-30T08:03:38.165Z,35.29
2023-07-30T08:05:29.718Z,35.28
2023-07-30T08:07:20.808Z,35.31
2023-07-30T08:09:12.080Z,35.42
2023-07-30T08:11:08.098Z,35.66
2023-07-30T08:12:59.412Z,35.88
2023-07-30T08:14:51.674Z,35.67
2023-07-30T08:16:43.437Z,35.93
2023-07-30T08:18:34.678Z,36.18
2023-07-30T08:20:25.834Z,36.15
2023-07-30T08:22:16.862Z,35.94
2023-07-30T08:24:08.503Z,35.85
2023-07-30T08:25:59.851Z,35.82
2023-07-30T08:27:51.662Z,35.71
2023-07-30T08:29:43.184Z,35.59
2023-07-30T08:31:34.968Z,35.73
2023-07-30T08:33:27.514Z,35.98
2023-07-30T08:35:18.851Z,36.27
2023-07-30T08:37:10.500Z,36.31
2023-07-30T08:39:03.292Z,35.98
2023-07-30T08:40:54.491Z,35.74
2023-07-30T08:42:46.211Z,35.85
2023-07-30T08:44:37.590Z,36.09
2023-07-30T08:46:29.016Z,36.61
2023-07-30T08:48:20.681Z,36.70
2023-07-30T08:50:12.369Z,36.94
2023-07-30T08:52:04.969Z,37.24
2023-07-30T08:53:58.657Z,37.30
2023-07-30T08:55:49.769Z,37.66
2023-07-30T08:57:42.410Z,37.49
2023-07-30T08:59:51.291Z,37.34
2023-07-30T09:01:45.116Z,37.06
2023-07-30T09:03:39.708Z,37.07
2023-07-30T09:05:31.773Z,36.81
2023-07-30T09:07:25.307Z,36.95
2023-07-30T09:09:17.540Z,36.62
2023-07-30T09:11:09.834Z,36.62
2023-07-30T09:13:03.921Z,36.27
2023-07-30T09:14:55.519Z,36.12
2023-07-30T09:16:47.283Z,36.01
2023-07-30T09:18:43.085Z,36.17
2023-07-30T09:20:41.379Z,36.39
2023-07-30T09:22:34.807Z,36.75
2023-07-30T09:24:26.728Z,36.74
2023-07-30T09:26:18.143Z,36.72
2023-07-30T09:28:09.668Z,36.70
2023-07-30T09:30:02.685Z,36.92
2023-07-30T09:31:55.744Z,36.86
2023-07-30T09:33:47.478Z,37.39
2023-07-30T09:35:40.481Z,37.76
2023-07-30T09:37:32.199Z,37.62
2023-07-30T09:39:25.952Z,37.14
2023-07-30T09:41:17.640Z,36.85
2023-07-30T09:43:10.314Z,36.80
2023-07-30T09:45:02.304Z,36.86
2023-07-30T09:46:53.302Z,37.11
2023-07-30T09:48:44.577Z,37.20
2023-07-30T09:50:39.238Z,37.45
2023-07-30T09:52:31.145Z,37.88
2023-07-30T09:54:23.420Z,37.77
2023-07-30T09:56:15.071Z,37.96
2023-07-30T09:58:07.021Z,38.46
2023-07-30T10:00:00.235Z,38.45
2023-07-30T10:01:57.055Z,38.49
2023-07-30T10:03:49.794Z,38.25
2023-07-30T10:05:41.500Z,38.37
2023-07-30T10:07:34.969Z,38.04
2023-07-30T10:09:30.173Z,37.72
2023-07-30T10:11:21.645Z,37.37
2023-07-30T10:13:13.337Z,36.84
2023-07-30T10:15:07.814Z,36.68
2023-07-30T10:17:01.883Z,36.82
2023-07-30T10:18:58.913Z,36.60
2023-07-30T10:20:56.075Z,36.51
2023-07-30T10:22:47.609Z,36.38
2023-07-30T10:24:42.636Z,36.55
2023-07-30T10:26:36.748Z,36.46
2023-07-30T10:28:33.507Z,36.72
2023-07-30T10:30:32.362Z,36.97
2023-07-30T10:32:24.140Z,36.67
2023-07-30T10:34:16.712Z,36.59
2023-07-30T10:36:08.153Z,36.09
2023-07-30T10:37:59.844Z,35.72
2023-07-30T10:39:51.596Z,35.82
2023-07-30T10:41:55.301Z,35.50
2023-07-30T10:43:51.376Z,35.38
2023-07-30T10:45:52.403Z,35.80
2023-07-30T10:47:44.201Z,36.09
2023-07-30T10:49:39.873Z,36.06
2023-07-30T10:51:32.824Z,36.11
2023-07-30T10:53:27.063Z,36.25
2023-07-30T10:55:18.583Z,36.20
2023-07-30T10:57:09.921Z,36.34
2023-07-30T10:59:01.081Z,36.49
2023-07-30T11:00:52.473Z,36.47
2023-07-30T11:02:44.312Z,36.08
2023-07-30T11:04:36.370Z,36.13
2023-07-30T11:06:28.310Z,36.38
2023-07-30T11:08:19.592Z,36.74
2023-07-30T11:10:11.245Z,36.77
2023-07-30T11:12:03.268Z,36.96
2023-07-30T11:13:54.738Z,36.82
2023-07-30T11:15:46.568Z,36.88
2023-07-30T11:17:38.146Z,36.78
2023-07-30T11:19:30.740Z,36.54
2023-07-30T11:21:22.289Z,36.32
2023-07-30T11:23:20.413Z,36.08
2023-07-30T11:25:18.128Z,35.91
2023-07-30T11:27:09.588Z,35.97
2023-07-30T11:29:01.149Z,35.73
2023-07-30T11:30:52.526Z,35.90
2023-07-30T11:32:46.015Z,35.88
2023-07-30T11:34:40.222Z,35.65
2023-07-30T11:36:31.647Z,35.46
2023-07-30T11:38:26.797Z,35.42
2023-07-30T11:40:18.194Z,35.31
2023-07-30T11:42:09.825Z,35.25
2023-07-30T11:44:01.581Z,35.13
2023-07-30T11:46:13.315Z,35.15
2023-07-30T11:48:12.362Z,34.85
2023-07-30T11:50:04.230Z,34.67
2023-07-30T11:52:25.145Z,34.83
2023-07-30T11:54:20.834Z,34.46
2023-07-30T11:56:18.106Z,34.15
2023-07-30T11:58:13.341Z,34.10
2023-07-30T12:00:05.403Z,33.86
2023-07-30T12:01:57.038Z,33.74
2023-07-30T12:03:48.683Z,33.53
2023-07-30T12:05:40.419Z,33.52
2023-07-30T12:07:33.806Z,33.55
2023-07-30T12:09:28.834Z,33.55
2023-07-30T12:11:23.158Z,33.55
2023-07-30T12:13:16.983Z,33.57
2023-07-30T12:15:12.599Z,33.50
2023-07-30T12:17:04.660Z,33.35
2023-07-30T12:18:56.859Z,33.19
2023-07-30T12:20:48.863Z,33.15
2023-07-30T12:22:40.536Z,33.28
2023-07-30T12:24:32.363Z,33.14
2023-07-30T12:26:24.035Z,33.00
2023-07-30T12:28:15.622Z,33.08
2023-07-30T12:30:07.964Z,33.07
2023-07-30T12:32:01.486Z,33.20
2023-07-30T12:33:56.344Z,33.44
2023-07-30T12:35:48.084Z,33.52
2023-07-30T12:37:39.713Z,33.20
2023-07-30T12:39:31.048Z,32.94
2023-07-30T12:41:26.992Z,32.67
2023-07-30T12:43:20.269Z,32.32
2023-07-30T12:45:12.256Z,32.38
2023-07-30T12:47:04.407Z,32.31
2023-07-30T12:48:55.597Z,32.24
2023-07-30T12:50:47.335Z,32.48
2023-07-30T12:52:39.202Z,32.99
2023-07-30T12:54:30.436Z,33.06
2023-07-30T12:56:21.986Z,33.17
2023-07-30T12:58:13.364Z,33.06
2023-07-30T13:00:05.959Z,33.20
2023-07-30T13:01:57.799Z,33.34
2023-07-30T13:03:50.338Z,33.22
2023-07-30T13:05:41.635Z,33.47
2023-07-30T13:07:32.798Z,33.83
2023-07-30T13:09:24.158Z,34.23
2023-07-30T13:11:15.589Z,34.23
2023-07-30T13:13:06.765Z,34.68
2023-07-30T13:14:57.967Z,34.66
2023-07-30T13:16:49.346Z,34.54
2023-07-30T13:18:41.135Z,34.68
2023-07-30T13:20:33.360Z,34.78
2023-07-30T13:22:24.842Z,34.96
2023-07-30T13:24:15.910Z,35.29
2023-07-30T13:26:07.101Z,35.13
2023-07-30T13:27:58.339Z,35.03
2023-07-30T13:29:50.246Z,35.20
2023-07-30T13:31:42.265Z,35.61
2023-07-30T13:33:34.106Z,35.36
2023-07-30T13:35:25.593Z,35.41
2023-07-30T13:37:16.811Z,35.63
2023-07-30T13:39:08.056Z,35.97
2023-07-30T13:40:59.450Z,36.18
2023-07-30T13:42:50.987Z,35.95
2023-07-30T13:44:43.263Z,35.76
2023-07-30T13:46:35.215Z,35.83
2023-07-30T13:48:27.057Z,35.52
2023-07-30T13:50:18.217Z,35.58
2023-07-30T13:52:09.739Z,35.50
2023-07-30T13:54:01.382Z,35.55
2023-07-30T13:55:53.384Z,35.57
2023-07-30T13:57:44.665Z,35.63
2023-07-30T13:59:35.787Z,35.99
2023-07-30T14:01:27.474Z,35.81
2023-07-30T14:03:18.643Z,35.92
2023-07-30T14:05:11.549Z,35.67
2023-07-30T14:07:02.797Z,35.75
2023-07-30T14:08:54.553Z,36.35
2023-07-30T14:10:46.368Z,36.54
2023-07-30T14:12:37.415Z,35.87
2023-07-30T14:14:29.097Z,35.59
2023-07-30T14:16:20.422Z,35.53
2023-07-30T14:18:12.064Z,35.15
2023-07-30T14:20:03.675Z,35.05
2023-07-30T14:21:55.206Z,34.90
2023-07-30T14:23:46.288Z,34.92
2023-07-30T14:25:38.221Z,34.65
2023-07-30T14:27:29.670Z,34.70
2023-07-30T14:29:21.267Z,34.41
2023-07-30T14:31:12.885Z,34.26
2023-07-30T14:33:04.749Z,34.09
2023-07-30T14:34:56.344Z,33.95
2023-07-30T14:36:47.993Z,33.86
2023-07-30T14:38:39.744Z,33.75
2023-07-30T14:40:31.992Z,33.47
2023-07-30T14:42:23.482Z,32.87
2023-07-30T14:44:14.895Z,31.83
2023-07-30T14:46:07.970Z,31.40
2023-07-30T14:47:59.585Z,31.19
2023-07-30T14:49:52.748Z,30.94
2023-07-30T14:51:44.473Z,30.72
2023-07-30T14:53:36.171Z,30.49
2023-07-30T14:55:27.815Z,30.28
2023-07-30T14:57:19.816Z,30.06
2023-07-30T14:59:12.022Z,29.81
2023-07-30T15:01:03.401Z,29.39
2023-07-30T15:02:55.727Z,28.64
2023-07-30T15:04:47.300Z,28.28
2023-07-30T15:06:39.175Z,28.14
2023-07-30T15:08:33.358Z,28.13
2023-07-30T15:10:24.855Z,28.25
2023-07-30T15:12:16.570Z,28.37
2023-07-30T15:14:08.196Z,28.46
2023-07-30T15:15:59.336Z,28.32
2023-07-30T15:17:50.941Z,28.25
2023-07-30T15:19:42.620Z,28.29
2023-07-30T15:21:36.563Z,28.08
2023-07-30T15:23:28.219Z,27.83
2023-07-30T15:25:19.963Z,27.59
2023-07-30T15:27:11.491Z,27.23
2023-07-30T15:29:03.092Z,27.13
2023-07-30T15:30:54.758Z,27.02
2023-07-30T15:32:46.224Z,26.83
2023-07-30T15:34:37.959Z,26.79
2023-07-30T15:36:29.572Z,26.60
2023-07-30T15:38:21.211Z,26.50
2023-07-30T15:40:13.610Z,26.60
2023-07-30T15:42:05.441Z,26.46
2023-07-30T15:43:57.036Z,26.56
2023-07-30T15:45:48.694Z,26.56
2023-07-30T15:47:40.987Z,26.59
2023-07-30T15:49:32.449Z,26.55
2023-07-30T15:51:23.940Z,26.53
2023-07-30T15:53:15.213Z,26.48
2023-07-30T15:55:06.752Z,26.53
2023-07-30T15:56:58.406Z,26.75
2023-07-30T15:58:49.869Z,26.80
2023-07-30T16:00:41.524Z,26.72
2023-07-30T16:02:34.039Z,26.62
2023-07-30T16:04:26.210Z,26.73
2023-07-30T16:06:17.804Z,27.06
2023-07-30T16:08:09.548Z,27.31
2023-07-30T16:10:00.853Z,27.14
2023-07-30T16:11:52.327Z,27.33
2023-07-30T16:13:43.882Z,27.46
2023-07-30T16:15:36.508Z,27.57
2023-07-30T16:17:29.019Z,27.66
2023-07-30T16:19:20.261Z,27.85
2023-07-30T16:21:11.974Z,27.84
2023-07-30T16:23:03.422Z,27.80
2023-07-30T16:24:55.121Z,28.04
2023-07-30T16:26:46.628Z,28.11
2023-07-30T16:28:38.520Z,28.15
2023-07-30T16:30:31.155Z,28.30
2023-07-30T16:32:24.723Z,28.28
2023-07-30T16:34:16.638Z,28.18
2023-07-30T16:36:08.298Z,28.20
2023-07-30T16:37:59.507Z,28.15
2023-07-30T16:39:50.982Z,28.27
2023-07-30T16:41:42.408Z,28.40
2023-07-30T16:43:33.566Z,28.47
2023-07-30T16:45:25.377Z,28.59
2023-07-30T16:47:17.004Z,28.60
2023-07-30T16:49:09.900Z,28.70
2023-07-30T16:51:01.540Z,28.80
2023-07-30T16:52:53.127Z,28.91
2023-07-30T16:54:44.826Z,28.89
2023-07-30T16:56:36.791Z,28.82
2023-07-30T16:58:28.534Z,28.74
2023-07-30T17:00:20.848Z,28.65
2023-07-30T17:02:12.311Z,28.67
2023-07-30T17:04:03.742Z,28.65
2023-07-30T17:06:01.777Z,28.52
2023-07-30T17:07:53.399Z,28.47
2023-07-30T17:09:45.087Z,28.48
2023-07-30T17:11:39.455Z,28.32
2023-07-30T17:13:31.534Z,28.41
2023-07-30T17:15:23.100Z,28.34
2023-07-30T17:17:14.773Z,28.21
2023-07-30T17:19:06.074Z,27.97
2023-07-30T17:20:58.680Z,27.88
2023-07-30T17:22:50.295Z,27.87
2023-07-30T17:24:41.997Z,27.89
2023-07-30T17:26:33.736Z,27.92
2023-07-30T17:28:26.509Z,27.92
2023-07-30T17:30:18.083Z,27.79
2023-07-30T17:32:09.903Z,27.85
2023-07-30T17:34:01.461Z,27.76
2023-07-30T17:35:53.081Z,27.82
2023-07-30T17:37:44.940Z,27.90
2023-07-30T17:39:37.350Z,27.96
2023-07-30T17:41:29.327Z,28.01
2023-07-30T17:43:20.560Z,27.99
2023-07-30T17:45:12.072Z,27.82
2023-07-30T17:47:04.044Z,27.83
2023-07-30T17:48:55.803Z,27.85
2023-07-30T17:50:48.373Z,27.92
2023-07-30T17:52:39.801Z,27.95
2023-07-30T17:54:31.194Z,27.85
2023-07-30T17:56:22.605Z,27.81
2023-07-30T17:58:13.959Z,27.90
2023-07-30T18:00:06.638Z,27.98
2023-07-30T18:01:58.783Z,28.06
2023-07-30T18:03:50.628Z,28.08
2023-07-30T18:05:48.190Z,28.11
2023-07-30T18:07:40.429Z,28.05
2023-07-30T18:09:31.891Z,28.06
2023-07-30T18:11:24.209Z,28.00
2023-07-30T18:13:16.178Z,28.13
2023-07-30T18:15:08.069Z,28.16
2023-07-30T18:16:59.111Z,27.95
2023-07-30T18:18:50.283Z,27.95
2023-07-30T18:20:42.303Z,28.06
2023-07-30T18:22:33.720Z,27.99
2023-07-30T18:24:25.230Z,28.02
2023-07-30T18:26:16.917Z,28.02
2023-07-30T18:28:08.317Z,28.02
2023-07-30T18:29:59.959Z,28.00
2023-07-30T18:31:51.349Z,27.96
2023-07-30T18:33:43.063Z,27.88
2023-07-30T18:35:34.564Z,27.89
2023-07-30T18:37:25.719Z,27.85
2023-07-30T18:39:17.354Z,27.63
2023-07-30T18:41:09.056Z,27.47
2023-07-30T18:43:00.383Z,27.35
2023-07-30T18:44:55.692Z,27.28
2023-07-30T18:46:47.409Z,27.34
2023-07-30T18:48:39.136Z,27.35
2023-07-30T18:50:32.219Z,27.31
2023-07-30T18:52:23.877Z,27.31
2023-07-30T18:54:15.317Z,27.37
2023-07-30T18:56:06.965Z,27.36
2023-07-30T18:57:58.206Z,27.39
2023-07-30T18:59:49.671Z,27.44
2023-07-30T19:01:41.747Z,27.48
2023-07-30T19:03:33.507Z,27.61
2023-07-30T19:05:25.138Z,27.50
2023-07-30T19:07:16.583Z,27.38
2023-07-30T19:09:08.358Z,27.35
2023-07-30T19:10:59.767Z,27.18
2023-07-30T19:12:51.291Z,27.11
2023-07-30T19:14:43.087Z,27.05
2023-07-30T19:16:34.344Z,26.86
2023-07-30T19:18:26.617Z,26.62
2023-07-30T19:20:17.795Z,26.58
2023-07-30T19:22:09.643Z,26.49
2023-07-30T19:24:01.703Z,26.55
2023-07-30T19:25:55.101Z,26.42
2023-07-30T19:27:47.047Z,26.42
2023-07-30T19:29:39.059Z,26.34
2023-07-30T19:31:30.903Z,26.30
2023-07-30T19:33:22.563Z,26.09
2023-07-30T19:35:14.028Z,26.09
2023-07-30T19:37:05.461Z,26.06
2023-07-30T19:38:58.936Z,25.92
2023-07-30T19:40:55.386Z,25.91
2023-07-30T19:42:47.056Z,25.83
2023-07-30T19:44:38.292Z,25.84
2023-07-30T19:46:30.077Z,25.92
2023-07-30T19:48:22.437Z,25.71
2023-07-30T19:50:20.937Z,25.89
2023-07-30T19:52:18.649Z,25.79
2023-07-30T19:54:12.582Z,25.84
2023-07-30T19:56:04.650Z,25.87
2023-07-30T19:57:59.357Z,25.88
2023-07-30T19:59:50.980Z,25.91
2023-07-30T20:01:42.731Z,25.83
2023-07-30T20:03:34.221Z,25.86
2023-07-30T20:05:25.888Z,25.69
2023-07-30T20:07:17.120Z,25.54
2023-07-30T20:09:08.366Z,25.39
2023-07-30T20:11:00.808Z,25.39
2023-07-30T20:12:51.988Z,25.37
2023-07-30T20:14:43.397Z,25.28
2023-07-30T20:16:35.203Z,25.24
2023-07-30T20:18:27.506Z,25.09
2023-07-30T20:20:19.710Z,25.07
2023-07-30T20:22:13.245Z,25.18
2023-07-30T20:24:06.711Z,25.05
2023-07-30T20:25:58.208Z,25.00
2023-07-30T20:27:49.398Z,24.90
2023-07-30T20:29:40.678Z,24.91
2023-07-30T20:31:37.400Z,24.99
2023-07-30T20:33:28.535Z,24.89
2023-07-30T20:35:20.033Z,24.79
2023-07-30T20:37:11.892Z,24.88
2023-07-30T20:39:03.722Z,25.06
2023-07-30T20:40:55.240Z,25.23
2023-07-30T20:42:46.445Z,25.18
2023-07-30T20:44:37.934Z,25.20
2023-07-30T20:46:29.229Z,25.23
2023-07-30T20:48:20.702Z,25.34
2023-07-30T20:50:17.271Z,25.26
2023-07-30T20:52:08.624Z,25.32
2023-07-30T20:54:00.092Z,25.27
2023-07-30T20:55:52.342Z,25.31
2023-07-30T20:57:44.028Z,25.25
2023-07-30T20:59:36.670Z,25.10
2023-07-30T21:01:28.500Z,25.09
2023-07-30T21:03:20.244Z,25.03
2023-07-30T21:05:12.278Z,25.05
2023-07-30T21:07:03.865Z,24.81
2023-07-30T21:08:55.435Z,24.74
2023-07-30T21:10:47.007Z,24.72
2023-07-30T21:12:40.011Z,24.76
2023-07-30T21:14:31.459Z,24.78
2023-07-30T21:16:23.297Z,24.90
2023-07-30T21:18:16.029Z,24.96
2023-07-30T21:20:08.380Z,25.00
2023-07-30T21:21:59.984Z,24.97
2023-07-30T21:23:51.473Z,24.90
2023-07-30T21:25:43.140Z,24.87
2023-07-30T21:27:34.851Z,24.73
2023-07-30T21:29:26.312Z,24.72
2023-07-30T21:31:17.522Z,24.79
2023-07-30T21:33:09.226Z,24.76
2023-07-30T21:35:01.046Z,24.66
2023-07-30T21:36:52.197Z,24.60
2023-07-30T21:38:43.392Z,24.63
2023-07-30T21:40:35.200Z,24.62
2023-07-30T21:42:27.728Z,24.57
2023-07-30T21:44:19.371Z,24.56
2023-07-30T21:46:10.727Z,24.49
2023-07-30T21:48:02.071Z,24.51
2023-07-30T21:49:53.561Z,24.58
2023-07-30T21:51:45.163Z,24.60
2023-07-30T21:53:36.437Z,24.49
2023-07-30T21:55:27.907Z,24.47
2023-07-30T21:57:19.586Z,24.60
2023-07-30T21:59:11.051Z,24.52
2023-07-30T22:01:02.996Z,24.62
2023-07-30T22:02:58.821Z,24.45
2023-07-30T22:04:50.204Z,24.40
2023-07-30T22:06:41.809Z,24.48
2023-07-30T22:08:33.682Z,24.49
2023-07-30T22:10:25.355Z,24.44
2023-07-30T22:12:16.779Z,24.48
2023-07-30T22:14:08.516Z,24.52
2023-07-30T22:15:59.903Z,24.59
2023-07-30T22:17:51.278Z,24.64
2023-07-30T22:19:43.008Z,24.53
2023-07-30T22:21:34.465Z,24.55
2023-07-30T22:23:27.161Z,24.57
2023-07-30T22:25:18.806Z,24.61
2023-07-30T22:27:10.011Z,24.66
2023-07-30T22:29:01.645Z,24.80
2023-07-30T22:30:53.733Z,24.72
2023-07-30T22:32:45.279Z,24.77
2023-07-30T22:34:38.252Z,24.74
2023-07-30T22:36:29.724Z,24.89
2023-07-30T22:38:21.517Z,24.83
2023-07-30T22:40:12.805Z,24.79
2023-07-30T22:42:04.525Z,24.87
2023-07-30T22:43:57.488Z,24.90
2023-07-30T22:45:48.860Z,24.83
2023-07-30T22:47:40.654Z,24.83
2023-07-30T22:49:32.441Z,24.80
2023-07-30T22:51:23.655Z,24.74
2023-07-30T22:53:15.403Z,24.76
2023-07-30T22:55:07.399Z,24.73
2023-07-30T22:56:58.760Z,24.74
2023-07-30T22:58:50.149Z,24.73
2023-07-30T23:00:41.691Z,24.69
2023-07-30T23:02:33.435Z,24.68
2023-07-30T23:04:25.082Z,24.65
2023-07-30T23:06:16.186Z,24.59
2023-07-30T23:08:07.640Z,24.66
2023-07-30T23:09:59.167Z,24.60
2023-07-30T23:11:50.836Z,24.47
2023-07-30T23:13:42.377Z,24.59
2023-07-30T23:15:34.066Z,24.55
2023-07-30T23:17:25.781Z,24.59
2023-07-30T23:19:17.418Z,24.75
2023-07-30T23:21:09.046Z,24.81
2023-07-30T23:23:00.749Z,24.82
2023-07-30T23:24:52.482Z,24.69
2023-07-30T23:26:44.186Z,24.75
2023-07-30T23:28:35.552Z,24.77
2023-07-30T23:30:27.318Z,24.77
2023-07-30T23:32:19.057Z,24.70
2023-07-30T23:34:10.756Z,24.80
2023-07-30T23:36:08.765Z,24.79
2023-07-30T23:37:59.955Z,24.67
2023-07-30T23:39:52.982Z,24.80
2023-07-30T23:41:45.545Z,24.84
2023-07-30T23:43:37.067Z,24.81
2023-07-30T23:45:28.753Z,24.78
2023-07-30T23:47:19.975Z,24.72
2023-07-30T23:49:11.680Z,24.66
2023-07-30T23:51:05.734Z,24.63
2023-07-30T23:52:58.313Z,24.70
2023-07-30T23:54:49.824Z,24.59
2023-07-30T23:56:41.816Z,24.61
2023-07-30T23:58:33.210Z,24.71
